createdAt,value
2018-10-18T00:00:54.647Z,0.00
2018-10-18T00:01:54.640Z,0.00
2018-10-18T00:02:54.623Z,0.00
2018-10-18T00:03:54.615Z,0.00
2018-10-18T00:04:54.618Z,0.00
2018-10-18T00:05:54.622Z,0.00
2018-10-18T00:06:54.810Z,0.00
2018-10-18T00:07:54.612Z,0.00
2018-10-18T00:08:54.542Z,0.00
2018-10-18T00:09:54.563Z,0.00
2018-10-18T00:10:54.539Z,0.00
2018-10-18T00:11:54.535Z,0.00
2018-10-18T00:12:54.498Z,0.00
2018-10-18T00:13:54.510Z,0.00
2018-10-18T00:14:54.516Z,0.00
2018-10-18T00:15:54.465Z,0.00
2018-10-18T00:16:54.453Z,0.00
2018-10-18T00:17:54.463Z,0.00
2018-10-18T00:18:54.441Z,0.00
2018-10-18T00:19:54.493Z,0.00
2018-10-18T00:20:54.425Z,0.00
2018-10-18T00:21:54.400Z,0.00
2018-10-18T00:22:54.403Z,0.00
2018-10-18T00:23:54.418Z,0.00
2018-10-18T00:24:54.393Z,0.00
2018-10-18T00:25:54.394Z,0.00
2018-10-18T00:26:54.347Z,0.00
2018-10-18T00:27:54.336Z,0.00
2018-10-18T00:28:54.329Z,0.00
2018-10-18T00:29:54.408Z,0.00
2018-10-18T00:30:54.311Z,0.00
2018-10-18T00:31:54.328Z,0.00
2018-10-18T00:32:54.294Z,0.00
2018-10-18T00:33:54.285Z,0.00
2018-10-18T00:34:54.361Z,0.00
2018-10-18T00:35:54.294Z,0.00
2018-10-18T00:36:54.267Z,0.00
2018-10-18T00:37:54.235Z,0.00
2018-10-18T00:38:54.217Z,0.00
2018-10-18T00:39:54.262Z,0.00
2018-10-18T00:40:54.201Z,0.00
2018-10-18T00:41:54.218Z,0.00
2018-10-18T00:42:54.199Z,0.00
2018-10-18T00:43:54.163Z,0.00
2018-10-18T00:44:54.173Z,0.00
2018-10-18T00:45:54.138Z,0.00
2018-10-18T00:46:54.127Z,0.00
2018-10-18T00:47:54.168Z,0.00
2018-10-18T00:48:54.121Z,0.00
2018-10-18T00:49:54.187Z,0.00
2018-10-18T00:50:54.098Z,0.00
2018-10-18T00:51:54.081Z,0.00
2018-10-18T00:52:54.090Z,0.00
2018-10-18T00:53:54.064Z,0.00
2018-10-18T00:54:54.086Z,0.00
2018-10-18T00:55:54.093Z,0.00
2018-10-18T00:56:54.030Z,0.00
2018-10-18T00:57:54.013Z,0.00
2018-10-18T00:58:54.015Z,0.00
2018-10-18T00:59:54.049Z,0.00
2018-10-18T01:00:53.995Z,0.00
2018-10-18T01:01:53.972Z,0.00
2018-10-18T01:02:53.954Z,0.00
2018-10-18T01:03:53.959Z,0.00
2018-10-18T01:04:53.993Z,0.00
2018-10-18T01:05:53.949Z,0.00
2018-10-18T01:06:53.910Z,0.00
2018-10-18T01:07:53.920Z,0.00
2018-10-18T01:08:53.886Z,0.00
2018-10-18T01:09:53.908Z,0.00
2018-10-18T01:10:53.879Z,0.00
2018-10-18T01:11:53.921Z,0.00
2018-10-18T01:12:53.843Z,0.00
2018-10-18T01:13:53.875Z,0.00
2018-10-18T01:14:53.859Z,0.00
2018-10-18T01:15:53.837Z,0.00
2018-10-18T01:16:53.798Z,0.00
2018-10-18T01:17:53.800Z,0.00
2018-10-18T01:18:53.780Z,0.00
2018-10-18T01:19:53.817Z,0.00
2018-10-18T01:20:53.759Z,0.00
2018-10-18T01:21:53.742Z,0.00
2018-10-18T01:22:53.733Z,0.00
2018-10-18T01:23:53.731Z,0.00
2018-10-18T01:24:53.754Z,0.00
2018-10-18T01:25:53.704Z,0.00
2018-10-18T01:26:53.692Z,0.00
2018-10-18T01:27:53.695Z,0.00
2018-10-18T01:28:53.673Z,0.00
2018-10-18T01:29:53.720Z,0.00
2018-10-18T01:30:53.659Z,0.00
2018-10-18T01:31:53.689Z,0.00
2018-10-18T01:32:53.624Z,0.00
2018-10-18T01:33:53.619Z,0.00
2018-10-18T01:34:53.657Z,0.00
2018-10-18T01:35:53.614Z,0.00
2018-10-18T01:36:53.579Z,0.00
2018-10-18T01:37:53.571Z,0.00
2018-10-18T01:38:53.568Z,0.00
2018-10-18T01:39:53.570Z,0.00
2018-10-18T01:40:53.540Z,0.00
2018-10-18T01:41:53.555Z,0.00
2018-10-18T01:42:53.537Z,0.00
2018-10-18T01:43:53.548Z,0.00
2018-10-18T01:44:53.520Z,0.00
2018-10-18T01:45:53.481Z,0.00
2018-10-18T01:46:53.470Z,0.00
2018-10-18T01:47:53.493Z,0.00
2018-10-18T01:48:53.456Z,0.00
2018-10-18T01:49:53.493Z,0.00
2018-10-18T01:50:53.428Z,0.00
2018-10-18T01:51:53.422Z,0.00
2018-10-18T01:52:53.405Z,0.00
2018-10-18T01:53:53.402Z,0.00
2018-10-18T01:54:53.435Z,0.00
2018-10-18T01:55:53.388Z,0.00
2018-10-18T01:56:53.371Z,0.00
2018-10-18T01:57:53.359Z,0.00
2018-10-18T01:58:53.363Z,0.00
2018-10-18T01:59:53.339Z,0.00
2018-10-18T02:00:53.373Z,0.00
2018-10-18T02:01:53.330Z,0.00
2018-10-18T02:02:53.309Z,0.00
2018-10-18T02:03:53.303Z,0.00
2018-10-18T02:04:53.280Z,0.00
2018-10-18T02:05:53.286Z,0.00
2018-10-18T02:06:53.298Z,0.00
2018-10-18T02:07:53.299Z,0.00
2018-10-18T02:08:53.242Z,0.00
2018-10-18T02:09:53.247Z,0.00
2018-10-18T02:10:53.234Z,0.00
2018-10-18T02:11:53.249Z,0.00
2018-10-18T02:12:53.241Z,0.00
2018-10-18T02:13:53.179Z,0.00
2018-10-18T02:14:53.195Z,0.00
2018-10-18T02:15:53.179Z,0.00
2018-10-18T02:16:53.152Z,0.00
2018-10-18T02:17:53.220Z,0.00
2018-10-18T02:18:53.201Z,0.00
2018-10-18T02:19:53.117Z,0.00
2018-10-18T02:20:53.104Z,0.00
2018-10-18T02:21:53.093Z,0.00
2018-10-18T02:22:53.099Z,0.00
2018-10-18T02:23:53.108Z,0.00
2018-10-18T02:24:53.113Z,0.00
2018-10-18T02:25:53.048Z,0.00
2018-10-18T02:26:53.037Z,0.00
2018-10-18T02:27:53.031Z,0.00
2018-10-18T02:28:53.037Z,0.00
2018-10-18T02:29:53.056Z,0.00
2018-10-18T02:30:53.007Z,0.00
2018-10-18T02:31:53.005Z,0.00
2018-10-18T02:32:52.973Z,0.00
2018-10-18T02:33:52.965Z,0.00
2018-10-18T02:34:53.006Z,0.00
2018-10-18T02:35:52.965Z,0.00
2018-10-18T02:36:52.930Z,0.00
2018-10-18T02:37:52.923Z,0.00
2018-10-18T02:38:52.933Z,0.00
2018-10-18T02:39:52.910Z,0.00
2018-10-18T02:40:52.956Z,0.00
2018-10-18T02:41:52.908Z,0.00
2018-10-18T02:42:52.863Z,0.00
2018-10-18T02:43:52.861Z,0.00
2018-10-18T02:44:52.858Z,0.00
2018-10-18T02:45:52.832Z,0.00
2018-10-18T02:46:52.852Z,0.00
2018-10-18T02:47:52.820Z,0.00
2018-10-18T02:48:52.801Z,0.00
2018-10-18T02:49:52.787Z,0.00
2018-10-18T02:50:52.780Z,0.00
2018-10-18T02:51:52.825Z,0.00
2018-10-18T02:52:52.760Z,0.00
2018-10-18T02:53:52.744Z,0.00
2018-10-18T02:54:52.751Z,0.00
2018-10-18T02:55:52.749Z,0.00
2018-10-18T02:56:52.714Z,0.00
2018-10-18T02:57:52.734Z,0.00
2018-10-18T02:58:52.702Z,0.00
2018-10-18T02:59:52.681Z,0.00
2018-10-18T03:00:52.685Z,0.00
2018-10-18T03:01:52.654Z,0.00
2018-10-18T03:02:52.650Z,0.00
2018-10-18T03:03:52.661Z,0.00
2018-10-18T03:04:52.622Z,0.00
2018-10-18T03:05:52.622Z,0.00
2018-10-18T03:06:52.619Z,0.00
2018-10-18T03:07:52.590Z,0.00
2018-10-18T03:08:52.580Z,0.00
2018-10-18T03:09:52.593Z,0.00
2018-10-18T03:10:52.577Z,0.00
2018-10-18T03:11:52.557Z,0.00
2018-10-18T03:12:52.539Z,0.00
2018-10-18T03:13:52.527Z,0.00
2018-10-18T03:14:52.546Z,0.00
2018-10-18T03:15:52.549Z,0.00
2018-10-18T03:16:52.490Z,0.00
2018-10-18T03:17:52.493Z,0.00
2018-10-18T03:18:52.478Z,0.00
2018-10-18T03:19:52.461Z,0.00
2018-10-18T03:20:52.513Z,0.00
2018-10-18T03:21:52.464Z,0.00
2018-10-18T03:22:52.439Z,0.00
2018-10-18T03:23:52.468Z,0.00
2018-10-18T03:24:52.401Z,0.00
2018-10-18T03:25:52.389Z,0.00
2018-10-18T03:26:52.402Z,0.00
2018-10-18T03:27:52.378Z,0.00
2018-10-18T03:28:52.360Z,0.00
2018-10-18T03:29:52.396Z,0.00
2018-10-18T03:30:52.381Z,0.00
2018-10-18T03:31:52.347Z,0.00
2018-10-18T03:32:52.317Z,0.00
2018-10-18T03:33:52.317Z,0.00
2018-10-18T03:34:52.292Z,0.00
2018-10-18T03:35:52.283Z,0.00
2018-10-18T03:36:52.304Z,0.00
2018-10-18T03:37:52.263Z,0.00
2018-10-18T03:38:52.260Z,0.00
2018-10-18T03:39:52.242Z,0.00
2018-10-18T03:40:52.234Z,0.00
2018-10-18T03:41:52.268Z,0.00
2018-10-18T03:42:52.204Z,0.00
2018-10-18T03:43:52.220Z,0.00
2018-10-18T03:44:52.186Z,0.00
2018-10-18T03:45:52.177Z,0.00
2018-10-18T03:46:52.188Z,0.00
2018-10-18T03:47:52.190Z,0.00
2018-10-18T03:48:52.148Z,0.00
2018-10-18T03:49:52.137Z,0.00
2018-10-18T03:50:52.116Z,0.00
2018-10-18T03:51:52.106Z,0.00
2018-10-18T03:52:52.133Z,0.00
2018-10-18T03:53:52.139Z,0.00
2018-10-18T03:54:52.076Z,0.00
2018-10-18T03:55:52.060Z,0.00
2018-10-18T03:56:52.145Z,0.00
2018-10-18T03:57:52.039Z,0.00
2018-10-18T03:58:52.034Z,0.00
2018-10-18T03:59:52.071Z,0.00
2018-10-18T04:00:52.005Z,0.00
2018-10-18T04:01:51.994Z,0.00
2018-10-18T04:02:52.014Z,0.00
2018-10-18T04:03:51.985Z,0.00
2018-10-18T04:04:51.972Z,0.00
2018-10-18T04:05:51.957Z,0.00
2018-10-18T04:06:51.963Z,0.00
2018-10-18T04:07:51.951Z,0.00
2018-10-18T04:08:51.941Z,0.00
2018-10-18T04:09:51.924Z,0.00
2018-10-18T04:10:51.896Z,0.00
2018-10-18T04:11:51.887Z,0.00
2018-10-18T04:12:51.971Z,0.00
2018-10-18T04:13:51.900Z,0.00
2018-10-18T04:14:51.861Z,0.00
2018-10-18T04:15:51.848Z,0.00
2018-10-18T04:16:51.871Z,0.00
2018-10-18T04:17:51.839Z,0.00
2018-10-18T04:18:51.848Z,0.00
2018-10-18T04:19:51.814Z,0.00
2018-10-18T04:20:51.800Z,0.00
2018-10-18T04:21:51.778Z,0.00
2018-10-18T04:22:51.782Z,0.00
2018-10-18T04:23:51.780Z,0.00
2018-10-18T04:24:51.784Z,0.00
2018-10-18T04:25:51.734Z,0.00
2018-10-18T04:26:51.748Z,0.00
2018-10-18T04:27:51.720Z,0.00
2018-10-18T04:28:51.728Z,0.00
2018-10-18T04:29:51.750Z,0.00
2018-10-18T04:30:51.703Z,0.00
2018-10-18T04:31:51.698Z,0.00
2018-10-18T04:32:51.657Z,0.00
2018-10-18T04:33:51.648Z,0.00
2018-10-18T04:34:51.635Z,0.00
2018-10-18T04:35:51.653Z,0.00
2018-10-18T04:36:51.624Z,0.00
2018-10-18T04:37:51.616Z,0.00
2018-10-18T04:38:51.599Z,0.00
2018-10-18T04:39:51.579Z,0.00
2018-10-18T04:40:51.609Z,0.00
2018-10-18T04:41:51.613Z,0.00
2018-10-18T04:42:51.558Z,0.00
2018-10-18T04:43:51.556Z,0.00
2018-10-18T04:44:51.526Z,0.00
2018-10-18T04:45:51.515Z,0.00
2018-10-18T04:46:51.539Z,0.00
2018-10-18T04:47:51.585Z,0.00
2018-10-18T04:48:51.575Z,0.00
2018-10-18T04:49:51.485Z,0.00
2018-10-18T04:50:51.460Z,0.00
2018-10-18T04:51:51.461Z,0.00
2018-10-18T04:52:51.475Z,0.00
2018-10-18T04:53:51.426Z,0.00
2018-10-18T04:54:51.424Z,0.00
2018-10-18T04:55:51.418Z,0.00
2018-10-18T04:56:51.471Z,0.00
2018-10-18T04:57:51.433Z,0.00
2018-10-18T04:58:51.372Z,0.00
2018-10-18T04:59:51.386Z,0.00
2018-10-18T05:00:51.393Z,0.00
2018-10-18T05:01:51.341Z,0.00
2018-10-18T05:02:51.434Z,0.00
2018-10-18T05:03:51.323Z,0.00
2018-10-18T05:04:51.429Z,0.00
2018-10-18T05:05:51.316Z,0.00
2018-10-18T05:06:51.325Z,0.00
2018-10-18T05:07:51.289Z,0.00
2018-10-18T05:08:51.298Z,0.00
2018-10-18T05:09:51.257Z,0.00
2018-10-18T05:10:51.251Z,0.00
2018-10-18T05:11:51.230Z,0.00
2018-10-18T05:12:51.238Z,0.00
2018-10-18T05:13:51.252Z,0.00
2018-10-18T05:14:51.207Z,0.00
2018-10-18T05:15:51.211Z,0.00
2018-10-18T05:16:51.180Z,0.00
2018-10-18T05:17:51.164Z,0.00
2018-10-18T05:18:51.163Z,0.00
2018-10-18T05:19:51.197Z,0.00
2018-10-18T05:20:51.144Z,0.00
2018-10-18T05:21:51.133Z,0.00
2018-10-18T05:22:51.137Z,0.00
2018-10-18T05:23:51.114Z,0.00
2018-10-18T05:24:51.184Z,0.00
2018-10-18T05:25:51.119Z,0.00
2018-10-18T05:26:51.082Z,0.00
2018-10-18T05:27:51.068Z,0.00
2018-10-18T05:28:51.067Z,0.00
2018-10-18T05:29:51.123Z,0.00
2018-10-18T05:30:51.127Z,0.00
2018-10-18T05:31:51.124Z,4.00
2018-10-18T05:32:51.005Z,4.00
2018-10-18T05:33:51.050Z,0.00
2018-10-18T05:34:51.000Z,0.00
2018-10-18T05:35:51.041Z,4.00
2018-10-18T05:36:51.087Z,4.00
2018-10-18T05:37:53.091Z,4.00
2018-10-18T05:38:51.318Z,4.00
2018-10-18T05:39:50.925Z,4.00
2018-10-18T05:40:50.981Z,8.00
2018-10-18T05:41:50.947Z,8.00
2018-10-18T05:42:50.892Z,4.00
2018-10-18T05:43:50.926Z,8.00
2018-10-18T05:44:50.876Z,8.00
2018-10-18T05:45:50.876Z,12.00
2018-10-18T05:46:50.907Z,12.00
2018-10-18T05:47:50.863Z,16.00
2018-10-18T05:48:57.297Z,16.00
2018-10-18T05:49:50.822Z,16.00
2018-10-18T05:50:50.806Z,16.00
2018-10-18T05:51:50.804Z,20.00
2018-10-18T05:52:50.850Z,24.00
2018-10-18T05:53:50.925Z,28.00
2018-10-18T05:54:50.789Z,32.00
2018-10-18T05:55:50.762Z,36.00
2018-10-18T05:56:50.744Z,48.00
2018-10-18T05:57:50.786Z,52.00
2018-10-18T05:58:50.726Z,56.00
2018-10-18T05:59:50.734Z,56.00
2018-10-18T06:00:50.701Z,60.00
2018-10-18T06:01:50.691Z,72.00
2018-10-18T06:02:50.708Z,80.00
2018-10-18T06:03:50.694Z,92.00
2018-10-18T06:04:50.657Z,100.00
2018-10-18T06:05:50.657Z,104.00
2018-10-18T06:06:50.636Z,116.00
2018-10-18T06:07:50.657Z,136.00
2018-10-18T06:08:50.615Z,148.00
2018-10-18T06:09:50.706Z,160.00
2018-10-18T06:10:50.592Z,168.00
2018-10-18T06:11:50.584Z,180.00
2018-10-18T06:12:50.758Z,192.00
2018-10-18T06:13:50.575Z,216.00
2018-10-18T06:14:50.579Z,240.00
2018-10-18T06:15:50.566Z,248.00
2018-10-18T06:16:50.537Z,268.00
2018-10-18T06:17:50.513Z,284.00
2018-10-18T06:18:50.532Z,300.00
2018-10-18T06:19:50.498Z,312.00
2018-10-18T06:20:50.513Z,332.00
2018-10-18T06:21:50.490Z,352.00
2018-10-18T06:22:50.603Z,372.00
2018-10-18T06:23:50.496Z,400.00
2018-10-18T06:24:50.439Z,432.00
2018-10-18T06:25:50.427Z,460.00
2018-10-18T06:26:50.453Z,520.00
2018-10-18T06:27:50.404Z,564.00
2018-10-18T06:28:50.407Z,600.00
2018-10-18T06:29:50.400Z,700.00
2018-10-18T06:30:50.390Z,752.00
2018-10-18T06:31:50.372Z,764.00
2018-10-18T06:32:50.418Z,848.00
2018-10-18T06:33:50.356Z,968.00
2018-10-18T06:34:50.329Z,972.00
2018-10-18T06:35:50.362Z,988.00
2018-10-18T06:36:50.308Z,944.00
2018-10-18T06:37:50.322Z,952.00
2018-10-18T06:38:50.315Z,968.00
2018-10-18T06:39:50.280Z,832.00
2018-10-18T06:40:50.271Z,844.00
2018-10-18T06:41:50.255Z,876.00
2018-10-18T06:42:50.297Z,868.00
2018-10-18T06:43:50.248Z,1044.00
2018-10-18T06:44:50.226Z,1140.00
2018-10-18T06:45:50.240Z,1280.00
2018-10-18T06:46:50.265Z,1300.00
2018-10-18T06:47:50.262Z,1192.00
2018-10-18T06:48:50.240Z,1192.00
2018-10-18T06:49:50.219Z,1400.00
2018-10-18T06:50:50.174Z,1452.00
2018-10-18T06:51:50.147Z,1472.00
2018-10-18T06:52:50.138Z,1480.00
2018-10-18T06:53:50.128Z,1548.00
2018-10-18T06:54:50.144Z,1436.00
2018-10-18T06:55:50.129Z,1380.00
2018-10-18T06:56:50.097Z,1328.00
2018-10-18T06:57:50.092Z,1316.00
2018-10-18T06:58:50.125Z,1468.00
2018-10-18T06:59:50.131Z,1572.00
2018-10-18T07:00:50.065Z,1712.00
2018-10-18T07:01:50.043Z,1872.00
2018-10-18T07:02:50.035Z,1892.00
2018-10-18T07:03:50.032Z,1904.00
2018-10-18T07:04:50.067Z,2044.00
2018-10-18T07:05:49.998Z,2088.00
2018-10-18T07:06:50.009Z,1972.00
2018-10-18T07:07:49.982Z,1992.00
2018-10-18T07:08:50.015Z,2064.00
2018-10-18T07:09:49.965Z,2140.00
2018-10-18T07:10:50.077Z,2260.00
2018-10-18T07:11:49.932Z,2428.00
2018-10-18T07:12:49.934Z,2496.00
2018-10-18T07:13:49.906Z,2496.00
2018-10-18T07:14:49.896Z,2512.00
2018-10-18T07:15:49.928Z,2516.00
2018-10-18T07:16:49.916Z,2652.00
2018-10-18T07:17:49.942Z,2908.00
2018-10-18T07:18:49.854Z,3104.00
2018-10-18T07:19:49.858Z,3184.00
2018-10-18T07:20:49.844Z,3248.00
2018-10-18T07:21:49.851Z,3436.00
2018-10-18T07:22:49.807Z,3684.00
2018-10-18T07:23:49.796Z,3744.00
2018-10-18T07:24:49.785Z,3708.00
2018-10-18T07:25:49.792Z,3840.00
2018-10-18T07:26:49.805Z,3892.00
2018-10-18T07:27:49.754Z,3796.00
2018-10-18T07:28:49.743Z,3692.00
2018-10-18T07:29:49.751Z,3808.00
2018-10-18T07:30:49.719Z,4048.00
2018-10-18T07:31:49.735Z,4092.00
2018-10-18T07:32:49.703Z,3968.00
2018-10-18T07:33:49.724Z,3952.00
2018-10-18T07:34:49.739Z,4036.00
2018-10-18T07:35:49.664Z,4132.00
2018-10-18T07:36:49.696Z,4212.00
2018-10-18T07:37:49.659Z,4292.00
2018-10-18T07:38:49.654Z,4280.00
2018-10-18T07:39:49.624Z,4460.00
2018-10-18T07:40:49.609Z,4648.00
2018-10-18T07:41:49.602Z,4804.00
2018-10-18T07:42:49.638Z,4784.00
2018-10-18T07:43:49.576Z,4888.00
2018-10-18T07:44:49.574Z,4876.00
2018-10-18T07:45:49.560Z,4920.00
2018-10-18T07:46:49.592Z,5012.00
2018-10-18T07:47:49.552Z,4924.00
2018-10-18T07:48:49.588Z,4752.00
2018-10-18T07:49:49.513Z,4624.00
2018-10-18T07:50:49.501Z,4648.00
2018-10-18T07:51:49.532Z,4908.00
2018-10-18T07:52:49.529Z,5332.00
2018-10-18T07:53:49.498Z,5600.00
2018-10-18T07:54:49.473Z,5584.00
2018-10-18T07:55:49.450Z,5536.00
2018-10-18T07:56:49.435Z,5276.00
2018-10-18T07:57:49.445Z,5176.00
2018-10-18T07:58:49.411Z,5216.00
2018-10-18T07:59:49.486Z,5280.00
2018-10-18T08:00:49.560Z,5356.00
2018-10-18T08:01:49.378Z,5480.00
2018-10-18T08:02:49.375Z,5756.00
2018-10-18T08:03:49.368Z,5888.00
2018-10-18T08:04:49.387Z,5844.00
2018-10-18T08:05:49.363Z,6040.00
2018-10-18T08:06:49.326Z,6300.00
2018-10-18T08:07:49.327Z,6380.00
2018-10-18T08:08:49.324Z,6228.00
2018-10-18T08:09:49.299Z,6148.00
2018-10-18T08:10:49.341Z,6272.00
2018-10-18T08:11:49.276Z,6520.00
2018-10-18T08:12:49.279Z,6452.00
2018-10-18T08:13:49.251Z,6412.00
2018-10-18T08:14:49.261Z,6628.00
2018-10-18T08:15:49.362Z,6932.00
2018-10-18T08:16:49.308Z,7172.00
2018-10-18T08:17:49.204Z,7348.00
2018-10-18T08:18:49.193Z,7428.00
2018-10-18T08:19:49.184Z,7296.00
2018-10-18T08:20:49.217Z,6888.00
2018-10-18T08:21:49.192Z,6500.00
2018-10-18T08:22:49.199Z,6048.00
2018-10-18T08:23:49.142Z,5644.00
2018-10-18T08:24:49.132Z,5464.00
2018-10-18T08:25:49.128Z,5524.00
2018-10-18T08:26:49.146Z,5136.00
2018-10-18T08:27:49.099Z,4736.00
2018-10-18T08:28:49.122Z,4780.00
2018-10-18T08:29:49.116Z,5024.00
2018-10-18T08:30:49.066Z,5032.00
2018-10-18T08:31:49.103Z,4840.00
2018-10-18T08:32:49.090Z,4184.00
2018-10-18T08:33:49.053Z,3792.00
2018-10-18T08:34:49.027Z,3832.00
2018-10-18T08:35:49.085Z,4148.00
2018-10-18T08:36:49.012Z,4524.00
2018-10-18T08:37:49.072Z,4644.00
2018-10-18T08:38:49.040Z,4524.00
2018-10-18T08:39:48.971Z,4428.00
2018-10-18T08:40:48.961Z,4344.00
2018-10-18T08:41:48.952Z,4452.00
2018-10-18T08:42:48.938Z,4584.00
2018-10-18T08:43:49.017Z,4532.00
2018-10-18T08:44:48.960Z,4700.00
2018-10-18T08:45:48.905Z,4744.00
2018-10-18T08:46:48.897Z,4724.00
2018-10-18T08:47:48.881Z,5016.00
2018-10-18T08:48:48.910Z,5480.00
2018-10-18T08:49:48.992Z,6124.00
2018-10-18T08:50:48.865Z,6752.00
2018-10-18T08:51:48.909Z,7292.00
2018-10-18T08:52:48.825Z,7420.00
2018-10-18T08:53:48.817Z,7024.00
2018-10-18T08:54:48.856Z,6520.00
2018-10-18T08:55:48.794Z,6252.00
2018-10-18T08:56:48.786Z,6344.00
2018-10-18T08:57:48.776Z,6752.00
2018-10-18T08:58:48.838Z,7164.00
2018-10-18T08:59:48.787Z,7444.00
2018-10-18T09:00:48.811Z,7248.00
2018-10-18T09:01:48.768Z,6928.00
2018-10-18T09:02:48.718Z,6904.00
2018-10-18T09:03:48.711Z,7252.00
2018-10-18T09:04:48.696Z,7748.00
2018-10-18T09:05:48.716Z,8096.00
2018-10-18T09:06:48.691Z,8400.00
2018-10-18T09:07:48.681Z,8512.00
2018-10-18T09:08:48.656Z,8736.00
2018-10-18T09:09:48.645Z,8912.00
2018-10-18T09:10:48.718Z,8856.00
2018-10-18T09:11:48.621Z,8572.00
2018-10-18T09:12:48.613Z,8216.00
2018-10-18T09:13:48.617Z,7908.00
2018-10-18T09:14:48.607Z,7656.00
2018-10-18T09:15:48.634Z,7420.00
2018-10-18T09:16:48.738Z,7184.00
2018-10-18T09:17:48.560Z,6964.00
2018-10-18T09:18:48.545Z,7048.00
2018-10-18T09:19:48.555Z,7184.00
2018-10-18T09:20:48.556Z,7224.00
2018-10-18T09:21:48.634Z,7280.00
2018-10-18T09:22:48.510Z,7628.00
2018-10-18T09:23:48.565Z,8036.00
2018-10-18T09:24:48.505Z,8404.00
2018-10-18T09:25:48.504Z,8568.00
2018-10-18T09:26:48.526Z,8396.00
2018-10-18T09:27:48.472Z,8192.00
2018-10-18T09:28:48.443Z,8144.00
2018-10-18T09:29:48.425Z,8240.00
2018-10-18T09:30:48.418Z,8472.00
2018-10-18T09:31:48.438Z,8600.00
2018-10-18T09:32:48.397Z,8456.00
2018-10-18T09:33:48.397Z,7868.00
2018-10-18T09:34:48.436Z,7060.00
2018-10-18T09:35:48.363Z,6700.00
2018-10-18T09:36:48.349Z,7008.00
2018-10-18T09:37:48.392Z,7472.00
2018-10-18T09:38:48.351Z,8132.00
2018-10-18T09:39:48.337Z,8736.00
2018-10-18T09:40:48.310Z,8536.00
2018-10-18T09:41:48.305Z,8208.00
2018-10-18T09:42:48.291Z,7764.00
2018-10-18T09:43:48.344Z,7412.00
2018-10-18T09:44:48.274Z,7356.00
2018-10-18T09:45:48.264Z,7284.00
2018-10-18T09:46:48.253Z,7444.00
2018-10-18T09:47:48.256Z,7436.00
2018-10-18T09:48:48.613Z,7632.00
2018-10-18T09:49:48.342Z,8028.00
2018-10-18T09:50:48.194Z,8088.00
2018-10-18T09:51:48.187Z,7636.00
2018-10-18T09:52:48.234Z,7388.00
2018-10-18T09:53:48.200Z,7616.00
2018-10-18T09:54:48.169Z,7932.00
2018-10-18T09:55:48.202Z,8432.00
2018-10-18T09:56:48.152Z,8820.00
2018-10-18T09:57:48.117Z,9604.00
2018-10-18T09:58:48.108Z,10288.00
2018-10-18T09:59:48.128Z,10996.00
2018-10-18T10:00:48.092Z,12184.00
2018-10-18T10:01:48.084Z,13056.00
2018-10-18T10:02:48.074Z,12676.00
2018-10-18T10:03:48.053Z,12084.00
2018-10-18T10:04:48.069Z,11564.00
2018-10-18T10:05:48.038Z,11008.00
2018-10-18T10:06:48.030Z,11004.00
2018-10-18T10:07:48.137Z,10620.00
2018-10-18T10:08:48.004Z,10584.00
2018-10-18T10:09:47.986Z,11076.00
2018-10-18T10:10:48.020Z,10988.00
2018-10-18T10:11:48.045Z,11476.00
2018-10-18T10:12:47.967Z,12620.00
2018-10-18T10:13:48.091Z,13400.00
2018-10-18T10:14:47.936Z,13844.00
2018-10-18T10:15:47.980Z,13672.00
2018-10-18T10:16:47.951Z,13124.00
2018-10-18T10:17:47.978Z,13120.00
2018-10-18T10:18:47.907Z,13820.00
2018-10-18T10:19:47.884Z,14240.00
2018-10-18T10:20:47.875Z,13612.00
2018-10-18T10:21:47.892Z,12496.00
2018-10-18T10:22:47.845Z,11336.00
2018-10-18T10:23:47.843Z,10528.00
2018-10-18T10:24:47.899Z,10640.00
2018-10-18T10:25:47.814Z,11324.00
2018-10-18T10:26:47.837Z,12092.00
2018-10-18T10:27:47.809Z,12340.00
2018-10-18T10:28:47.779Z,11644.00
2018-10-18T10:29:47.817Z,10772.00
2018-10-18T10:30:47.762Z,10484.00
2018-10-18T10:31:47.745Z,10484.00
2018-10-18T10:32:47.785Z,10240.00
2018-10-18T10:33:47.785Z,9792.00
2018-10-18T10:34:47.715Z,9284.00
2018-10-18T10:35:47.892Z,8500.00
2018-10-18T10:36:47.690Z,8256.00
2018-10-18T10:37:47.727Z,8208.00
2018-10-18T10:38:47.674Z,8264.00
2018-10-18T10:39:47.752Z,8328.00
2018-10-18T10:40:47.662Z,8844.00
2018-10-18T10:41:47.637Z,8748.00
2018-10-18T10:42:47.665Z,8048.00
2018-10-18T10:43:47.640Z,6588.00
2018-10-18T10:44:47.640Z,5240.00
2018-10-18T10:45:47.619Z,4872.00
2018-10-18T10:46:47.582Z,4668.00
2018-10-18T10:47:47.613Z,4932.00
2018-10-18T10:48:47.575Z,5516.00
2018-10-18T10:49:47.555Z,5768.00
2018-10-18T10:50:47.555Z,5820.00
2018-10-18T10:51:47.529Z,5752.00
2018-10-18T10:52:47.529Z,5384.00
2018-10-18T10:53:47.570Z,4984.00
2018-10-18T10:54:47.493Z,4888.00
2018-10-18T10:55:47.484Z,5056.00
2018-10-18T10:56:47.486Z,5212.00
2018-10-18T10:57:47.464Z,5460.00
2018-10-18T10:58:47.528Z,5436.00
2018-10-18T10:59:47.440Z,5176.00
2018-10-18T11:00:47.448Z,4784.00
2018-10-18T11:01:47.426Z,4288.00
2018-10-18T11:02:47.446Z,3852.00
2018-10-18T11:03:47.396Z,3416.00
2018-10-18T11:04:47.448Z,3248.00
2018-10-18T11:05:47.388Z,3088.00
2018-10-18T11:06:47.383Z,3016.00
2018-10-18T11:07:47.360Z,2920.00
2018-10-18T11:08:47.364Z,2820.00
2018-10-18T11:09:47.461Z,3036.00
2018-10-18T11:10:47.342Z,3316.00
2018-10-18T11:11:47.352Z,3416.00
2018-10-18T11:12:47.297Z,3492.00
2018-10-18T11:13:47.288Z,3580.00
2018-10-18T11:14:47.318Z,3596.00
2018-10-18T11:15:47.292Z,3716.00
2018-10-18T11:16:47.253Z,3672.00
2018-10-18T11:17:47.244Z,3560.00
2018-10-18T11:18:47.236Z,3420.00
2018-10-18T11:19:47.286Z,3280.00
2018-10-18T11:20:47.213Z,3184.00
2018-10-18T11:21:47.307Z,3108.00
2018-10-18T11:22:47.191Z,3256.00
2018-10-18T11:23:47.182Z,3524.00
2018-10-18T11:24:47.288Z,3600.00
2018-10-18T11:25:47.159Z,3692.00
2018-10-18T11:26:47.199Z,3996.00
2018-10-18T11:27:47.160Z,4356.00
2018-10-18T11:28:47.124Z,4524.00
2018-10-18T11:29:47.111Z,4460.00
2018-10-18T11:30:47.115Z,4288.00
2018-10-18T11:31:47.191Z,4252.00
2018-10-18T11:32:47.111Z,4220.00
2018-10-18T11:33:47.092Z,4344.00
2018-10-18T11:34:47.078Z,4720.00
2018-10-18T11:35:47.055Z,5664.00
2018-10-18T11:36:47.045Z,7084.00
2018-10-18T11:37:47.074Z,9320.00
2018-10-18T11:38:47.014Z,11420.00
2018-10-18T11:39:47.026Z,12560.00
2018-10-18T11:40:46.998Z,12856.00
2018-10-18T11:41:47.091Z,12516.00
2018-10-18T11:42:47.044Z,12036.00
2018-10-18T11:43:47.101Z,12052.00
2018-10-18T11:44:46.951Z,12404.00
2018-10-18T11:45:46.949Z,12556.00
2018-10-18T11:46:46.926Z,12876.00
2018-10-18T11:47:46.919Z,13056.00
2018-10-18T11:48:46.953Z,13024.00
2018-10-18T11:49:46.893Z,12904.00
2018-10-18T11:50:46.896Z,12696.00
2018-10-18T11:51:46.986Z,12948.00
2018-10-18T11:52:46.879Z,13388.00
2018-10-18T11:53:46.853Z,13412.00
2018-10-18T11:54:46.886Z,13124.00
2018-10-18T11:55:46.839Z,12740.00
2018-10-18T11:56:47.065Z,12384.00
2018-10-18T11:57:46.812Z,12304.00
2018-10-18T11:58:46.845Z,12252.00
2018-10-18T11:59:46.823Z,12332.00
2018-10-18T12:00:46.901Z,13000.00
2018-10-18T12:01:46.767Z,13732.00
2018-10-18T12:02:46.835Z,14100.00
2018-10-18T12:03:46.930Z,13512.00
2018-10-18T12:04:46.731Z,12896.00
2018-10-18T12:05:46.756Z,12064.00
2018-10-18T12:06:46.710Z,11876.00
2018-10-18T12:07:46.762Z,12020.00
2018-10-18T12:08:46.689Z,12204.00
2018-10-18T12:09:46.675Z,12364.00
2018-10-18T12:10:46.699Z,12276.00
2018-10-18T12:11:46.829Z,11956.00
2018-10-18T12:12:46.780Z,11588.00
2018-10-18T12:13:46.633Z,11224.00
2018-10-18T12:14:46.625Z,10860.00
2018-10-18T12:15:46.647Z,10940.00
2018-10-18T12:16:46.694Z,11396.00
2018-10-18T12:17:46.593Z,11880.00
2018-10-18T12:18:46.577Z,11932.00
2018-10-18T12:19:46.604Z,11660.00
2018-10-18T12:20:46.590Z,11200.00
2018-10-18T12:21:46.543Z,10780.00
2018-10-18T12:22:46.558Z,10460.00
2018-10-18T12:23:46.587Z,10716.00
2018-10-18T12:24:46.512Z,10928.00
2018-10-18T12:25:46.500Z,10840.00
2018-10-18T12:26:46.532Z,10568.00
2018-10-18T12:27:46.674Z,10104.00
2018-10-18T12:28:46.472Z,10056.00
2018-10-18T12:29:46.465Z,10308.00
2018-10-18T12:30:46.459Z,10748.00
2018-10-18T12:31:46.439Z,10984.00
2018-10-18T12:32:46.485Z,10604.00
2018-10-18T12:33:46.442Z,9876.00
2018-10-18T12:34:46.404Z,9300.00
2018-10-18T12:35:46.394Z,8988.00
2018-10-18T12:36:46.417Z,8976.00